Lucia, California
Current Conditions -  °F | °C
As of 9:54 PM on Saturday 22 Nov 2014 (Local Time) from KMRY Reporting Station
Clear Clear  
Wind Chill: 11°   Ceiling: Unl
Heat Index: 11°   Visibility: 10mi
Dew Point: 10°   Wind: 6mph
Humidity: 93%   Direction: 90°E
Pressure: 30.23"   Gusts: NA
Location:  36.2518°N, 121.704°W
Report Text: KMRY 230554Z AUTO 09005KT 10SM CLR 11/10 A3023 RMK AO2 SLP247 60000 T01110100 10167 20111 51020
Loading
Personal Weather Stations






























Interactive Weather Map New forecast layout! Learn more

10-Day Weather Forecast

Advertisements
Track Severe Weather on mobile